createdAt,value
2022-09-23T00:01:27.383Z,16.20
2022-09-23T00:03:55.474Z,11.00
2022-09-23T00:06:24.605Z,13.40
2022-09-23T00:08:52.858Z,11.80
2022-09-23T00:11:23.821Z,14.50
2022-09-23T00:13:55.723Z,15.30
2022-09-23T00:16:30.427Z,10.90
2022-09-23T00:18:58.568Z,10.70
2022-09-23T00:21:27.105Z,12.70
2022-09-23T00:23:55.483Z,15.60
2022-09-23T00:26:23.976Z,22.50
2022-09-23T00:28:52.047Z,23.50
2022-09-23T00:31:26.118Z,29.90
2022-09-23T00:34:00.704Z,46.00
2022-09-23T00:36:30.462Z,33.10
2022-09-23T00:38:58.657Z,21.60
2022-09-23T00:41:27.295Z,16.30
2022-09-23T00:44:00.248Z,16.90
2022-09-23T00:46:37.637Z,13.10
2022-09-23T00:49:29.430Z,12.70
2022-09-23T00:52:07.887Z,11.60
2022-09-23T00:54:35.959Z,11.80
2022-09-23T00:57:05.869Z,12.60
2022-09-23T00:59:34.793Z,12.70
2022-09-23T01:02:03.643Z,13.10
2022-09-23T01:04:31.966Z,12.20
2022-09-23T01:07:02.358Z,11.50
2022-09-23T01:09:30.412Z,12.90
2022-09-23T01:12:12.956Z,12.90
2022-09-23T01:14:53.184Z,12.10
2022-09-23T01:18:00.369Z,15.70
2022-09-23T01:20:41.857Z,15.00
2022-09-23T01:23:30.807Z,16.10
2022-09-23T01:26:23.360Z,17.10
2022-09-23T01:29:38.335Z,20.60
2022-09-23T01:32:26.959Z,32.20
2022-09-23T01:35:23.883Z,16.40
2022-09-23T01:38:40.168Z,17.10
2022-09-23T01:41:23.367Z,20.80
2022-09-23T01:44:29.737Z,12.80
2022-09-23T01:47:08.257Z,14.00
2022-09-23T01:50:30.211Z,14.10
2022-09-23T01:53:05.017Z,14.10
2022-09-23T01:55:38.422Z,12.80
2022-09-23T01:58:16.105Z,14.20
2022-09-23T02:00:53.574Z,13.20
2022-09-23T02:03:50.115Z,13.10
2022-09-23T02:06:31.622Z,14.10
2022-09-23T02:09:03.323Z,14.00
2022-09-23T02:11:36.479Z,13.00
2022-09-23T02:14:24.659Z,13.80
2022-09-23T02:16:56.172Z,13.40
2022-09-23T02:19:37.749Z,12.60
2022-09-23T02:22:16.336Z,15.10
2022-09-23T02:24:51.286Z,12.90
2022-09-23T02:27:48.018Z,12.70
2022-09-23T02:30:27.242Z,12.70
2022-09-23T02:33:11.907Z,16.10
2022-09-23T02:35:49.277Z,15.20
2022-09-23T02:38:39.229Z,17.30
2022-09-23T02:41:24.010Z,13.80
2022-09-23T02:44:08.284Z,16.10
2022-09-23T02:46:37.179Z,14.50
2022-09-23T02:49:20.172Z,17.30
2022-09-23T02:54:26.156Z,17.70
2022-09-23T02:56:54.847Z,17.10
2022-09-23T02:59:24.192Z,16.00
2022-09-23T03:02:17.541Z,16.80
2022-09-23T03:05:12.764Z,17.90
2022-09-23T03:08:15.304Z,20.00
2022-09-23T03:10:59.712Z,17.40
2022-09-23T03:13:54.202Z,21.60
2022-09-23T03:16:36.371Z,24.20
2022-09-23T03:19:47.933Z,23.60
2022-09-23T03:22:34.546Z,23.40
2022-09-23T03:25:08.302Z,21.30
2022-09-23T03:27:37.339Z,20.20
2022-09-23T03:30:07.524Z,18.80
2022-09-23T03:32:36.631Z,25.90
2022-09-23T03:35:07.516Z,31.40
2022-09-23T03:37:47.524Z,29.40
2022-09-23T03:40:34.171Z,29.80
2022-09-23T03:43:05.138Z,31.30
2022-09-23T03:45:34.464Z,30.70
2022-09-23T03:48:03.721Z,30.10
2022-09-23T03:50:32.050Z,27.60
2022-09-23T03:53:00.235Z,33.30
2022-09-23T03:55:28.616Z,31.90
2022-09-23T03:57:56.899Z,33.40
2022-09-23T04:00:25.114Z,31.40
2022-09-23T04:02:53.398Z,31.60
2022-09-23T04:05:21.561Z,30.60
2022-09-23T04:07:51.200Z,34.70
2022-09-23T04:10:19.423Z,178.20
2022-09-23T04:12:47.543Z,197.40
2022-09-23T04:15:15.904Z,149.40
2022-09-23T04:17:43.951Z,109.90
2022-09-23T04:20:13.108Z,98.70
2022-09-23T04:22:41.493Z,75.40
2022-09-23T04:25:09.998Z,65.60
2022-09-23T04:27:38.228Z,61.10
2022-09-23T04:30:07.554Z,60.00
2022-09-23T04:32:37.235Z,53.40
2022-09-23T04:35:06.878Z,53.30
2022-09-23T04:37:34.832Z,65.00
2022-09-23T04:40:03.377Z,61.90
2022-09-23T04:42:31.431Z,49.60
2022-09-23T04:44:59.300Z,47.50
2022-09-23T04:47:27.260Z,48.80
2022-09-23T04:49:59.801Z,57.60
2022-09-23T04:52:31.391Z,51.40
2022-09-23T04:55:01.541Z,53.00
2022-09-23T04:57:31.268Z,59.20
2022-09-23T04:59:59.823Z,77.30
2022-09-23T05:02:28.312Z,84.20
2022-09-23T05:04:56.257Z,80.90
2022-09-23T05:07:24.529Z,85.60
2022-09-23T05:09:52.263Z,145.60
2022-09-23T05:12:20.201Z,157.50
2022-09-23T05:14:48.002Z,149.30
2022-09-23T05:17:15.958Z,147.10
2022-09-23T05:19:46.580Z,121.60
2022-09-23T05:22:39.700Z,118.70
2022-09-23T05:25:08.436Z,109.20
2022-09-23T05:27:37.335Z,105.10
2022-09-23T05:30:06.125Z,86.40
2022-09-23T05:32:37.346Z,90.50
2022-09-23T05:35:11.736Z,76.70
2022-09-23T05:37:40.339Z,74.10
2022-09-23T05:40:10.564Z,61.20
2022-09-23T05:42:40.419Z,70.90
2022-09-23T05:45:11.618Z,76.40
2022-09-23T05:47:45.066Z,92.70
2022-09-23T05:50:13.132Z,103.20
2022-09-23T05:52:48.636Z,118.00
2022-09-23T05:55:17.017Z,120.30
2022-09-23T05:57:48.566Z,116.20
2022-09-23T06:00:20.494Z,107.90
2022-09-23T06:02:49.560Z,94.00
2022-09-23T06:05:20.868Z,92.50
2022-09-23T06:07:49.311Z,106.20
2022-09-23T06:10:17.783Z,97.40
2022-09-23T06:12:48.653Z,109.50
2022-09-23T06:15:19.389Z,103.60
2022-09-23T06:17:51.349Z,105.20
2022-09-23T06:20:29.313Z,105.80
2022-09-23T06:23:30.105Z,95.30
2022-09-23T06:26:19.238Z,90.20
2022-09-23T06:28:50.506Z,87.30
2022-09-23T06:31:21.636Z,79.10
2022-09-23T06:34:04.682Z,77.30
2022-09-23T06:36:43.965Z,77.70
2022-09-23T06:39:19.995Z,71.20
2022-09-23T06:41:50.732Z,69.10
2022-09-23T06:46:58.489Z,88.20
2022-09-23T06:49:58.070Z,87.10
2022-09-23T06:52:30.169Z,91.70
2022-09-23T06:54:58.751Z,89.60
2022-09-23T07:09:30.984Z,51.60
2022-09-23T07:12:01.326Z,58.70
2022-09-23T07:14:32.023Z,57.10
2022-09-23T07:17:00.275Z,51.70
2022-09-23T07:19:28.552Z,54.10
2022-09-23T07:21:57.799Z,46.80
2022-09-23T07:24:27.065Z,46.10
2022-09-23T07:26:56.496Z,40.80
2022-09-23T07:29:31.303Z,31.30
2022-09-23T07:32:13.197Z,31.40
2022-09-23T07:34:43.728Z,28.40
2022-09-23T07:37:12.915Z,27.30
2022-09-23T07:39:46.180Z,31.40
2022-09-23T07:42:19.021Z,22.60
2022-09-23T07:44:47.607Z,26.90
2022-09-23T07:47:19.741Z,24.70
2022-09-23T07:49:54.305Z,24.90
2022-09-23T07:52:22.821Z,21.80
2022-09-23T07:54:55.335Z,22.20
2022-09-23T07:57:24.368Z,18.90
2022-09-23T07:59:52.768Z,20.70
2022-09-23T08:02:21.495Z,20.70
2022-09-23T08:04:50.156Z,23.20
2022-09-23T08:07:19.536Z,17.00
2022-09-23T08:09:47.920Z,20.60
2022-09-23T08:12:18.883Z,18.00
2022-09-23T08:14:47.850Z,18.00
2022-09-23T08:17:16.464Z,17.80
2022-09-23T08:19:45.333Z,18.70
2022-09-23T08:22:16.478Z,16.00
2022-09-23T08:24:45.388Z,21.60
2022-09-23T08:27:14.730Z,15.40
2022-09-23T08:29:47.009Z,16.80
2022-09-23T08:32:18.392Z,15.30
2022-09-23T08:34:47.058Z,13.70
2022-09-23T08:37:21.382Z,15.30
2022-09-23T08:39:50.239Z,15.20
2022-09-23T08:42:27.187Z,14.30
2022-09-23T08:45:02.082Z,13.40
2022-09-23T08:48:00.843Z,14.40
2022-09-23T08:50:45.351Z,11.80
2022-09-23T08:53:36.216Z,9.70
2022-09-23T08:56:22.419Z,14.00
2022-09-23T08:59:20.819Z,11.70
2022-09-23T09:02:01.392Z,13.40
2022-09-23T09:04:50.665Z,9.50
2022-09-23T09:07:38.433Z,11.40
2022-09-23T09:10:20.826Z,10.40
2022-09-23T09:12:54.980Z,12.90
2022-09-23T09:15:31.165Z,16.40
2022-09-23T09:18:17.541Z,11.90
2022-09-23T09:20:58.049Z,8.70
2022-09-23T09:23:36.923Z,7.30
2022-09-23T09:26:20.251Z,8.90
2022-09-23T09:29:23.377Z,9.00
2022-09-23T09:31:53.486Z,9.90
2022-09-23T09:34:44.140Z,7.70
2022-09-23T09:37:53.404Z,10.20
2022-09-23T09:40:28.877Z,6.10
2022-09-23T09:42:57.864Z,7.60
2022-09-23T09:45:42.707Z,6.80
2022-09-23T09:48:19.558Z,6.30
2022-09-23T09:50:53.308Z,5.00
2022-09-23T09:53:28.608Z,4.90
2022-09-23T09:56:11.024Z,5.20
2022-09-23T09:58:52.611Z,4.20
2022-09-23T10:01:37.168Z,5.00
2022-09-23T10:04:35.315Z,4.60
2022-09-23T10:07:16.237Z,6.90
2022-09-23T10:09:58.318Z,5.00
2022-09-23T10:12:47.467Z,4.80
2022-09-23T10:15:44.751Z,6.70
2022-09-23T10:18:27.731Z,3.70
2022-09-23T10:21:28.350Z,3.60
2022-09-23T10:24:00.157Z,3.80
2022-09-23T10:27:10.476Z,5.00
2022-09-23T10:29:51.675Z,2.60
2022-09-23T10:32:40.315Z,3.50
2022-09-23T10:35:15.106Z,3.70
2022-09-23T10:37:54.032Z,3.20
2022-09-23T10:40:57.459Z,3.70
2022-09-23T10:43:58.897Z,4.60
2022-09-23T10:46:41.357Z,4.60
2022-09-23T10:49:33.879Z,2.70
2022-09-23T10:52:16.344Z,3.50
2022-09-23T10:58:07.533Z,2.90
2022-09-23T11:00:48.164Z,5.10
2022-09-23T11:03:49.041Z,5.00
2022-09-23T11:06:45.577Z,3.70
2022-09-23T11:09:41.570Z,2.20
2022-09-23T11:12:40.349Z,3.80
2022-09-23T11:15:33.434Z,4.70
2022-09-23T11:18:56.040Z,3.10
2022-09-23T11:22:08.411Z,4.40
2022-09-23T11:25:10.386Z,3.40
2022-09-23T11:28:07.735Z,5.40
2022-09-23T11:30:45.916Z,5.00
2022-09-23T11:33:42.162Z,4.20
2022-09-23T11:36:27.335Z,3.90
2022-09-23T11:39:00.727Z,2.60
2022-09-23T11:41:37.661Z,2.80
2022-09-23T11:44:29.713Z,2.50
2022-09-23T11:47:09.510Z,3.00
2022-09-23T11:49:42.636Z,2.90
2022-09-23T11:52:30.879Z,2.40
2022-09-23T11:55:27.901Z,4.70
2022-09-23T11:58:50.138Z,2.80
2022-09-23T12:01:37.630Z,4.30
2022-09-23T12:04:19.742Z,2.80
2022-09-23T12:06:58.589Z,2.70
2022-09-23T12:09:58.175Z,5.80
2022-09-23T12:12:41.144Z,4.10
2022-09-23T12:15:44.648Z,3.40
2022-09-23T12:18:50.287Z,3.50
2022-09-23T12:21:50.824Z,3.40
2022-09-23T12:24:44.998Z,3.00
2022-09-23T12:27:37.065Z,6.10
2022-09-23T12:30:16.769Z,3.40
2022-09-23T12:32:44.984Z,2.70
2022-09-23T12:35:33.718Z,3.30
2022-09-23T12:38:02.488Z,3.80
2022-09-23T12:40:35.906Z,3.00
2022-09-23T12:43:04.076Z,4.20
2022-09-23T12:45:35.487Z,3.30
2022-09-23T12:51:07.615Z,4.50
2022-09-23T12:56:28.165Z,3.40
2022-09-23T12:59:28.660Z,3.60
2022-09-23T13:01:57.967Z,2.70
2022-09-23T13:05:03.917Z,3.80
2022-09-23T13:07:34.272Z,4.30
2022-09-23T13:10:33.634Z,2.70
2022-09-23T13:13:02.543Z,4.20
2022-09-23T13:15:34.435Z,6.50
2022-09-23T13:18:24.421Z,5.70
2022-09-23T13:20:55.122Z,4.60
2022-09-23T13:23:28.955Z,3.30
2022-09-23T13:26:02.478Z,3.00
2022-09-23T13:28:32.237Z,3.00
2022-09-23T13:31:06.626Z,3.20
2022-09-23T13:33:43.281Z,4.10
2022-09-23T13:36:16.087Z,4.10
2022-09-23T13:38:47.125Z,3.30
2022-09-23T13:41:28.719Z,3.30
2022-09-23T13:44:08.160Z,4.70
2022-09-23T13:46:46.049Z,4.50
2022-09-23T13:49:27.007Z,3.40
2022-09-23T13:51:58.450Z,2.90
2022-09-23T13:54:36.997Z,3.30
2022-09-23T13:57:24.646Z,4.60
2022-09-23T13:59:55.170Z,3.20
2022-09-23T14:02:26.171Z,4.10
2022-09-23T14:05:01.417Z,4.20
2022-09-23T14:07:29.725Z,4.30
2022-09-23T14:10:04.862Z,3.80
2022-09-23T14:12:40.031Z,4.00
2022-09-23T14:15:17.920Z,3.10
2022-09-23T14:17:54.924Z,3.10
2022-09-23T14:20:53.412Z,3.30
2022-09-23T14:23:25.023Z,2.30
2022-09-23T14:26:04.122Z,2.90
2022-09-23T14:28:37.238Z,4.70
2022-09-23T14:31:08.482Z,3.90
2022-09-23T14:33:48.148Z,6.10
2022-09-23T14:36:36.886Z,3.70
2022-09-23T14:39:18.653Z,2.90
2022-09-23T14:41:55.295Z,5.10
2022-09-23T14:44:28.294Z,5.50
2022-09-23T14:46:59.989Z,3.40
2022-09-23T14:49:28.044Z,3.30
2022-09-23T14:52:03.444Z,3.30
2022-09-23T14:54:46.008Z,5.90
2022-09-23T14:57:23.299Z,3.10
2022-09-23T15:00:06.467Z,6.90
2022-09-23T15:02:58.488Z,3.30
2022-09-23T15:05:40.026Z,4.70
2022-09-23T15:08:14.374Z,6.10
2022-09-23T15:10:42.364Z,4.40
2022-09-23T15:13:17.932Z,3.70
2022-09-23T15:15:46.141Z,7.20
2022-09-23T15:18:34.069Z,11.40
2022-09-23T15:21:12.846Z,12.00
2022-09-23T15:23:55.294Z,13.50
2022-09-23T15:26:48.653Z,16.50
2022-09-23T15:29:17.337Z,29.20
2022-09-23T15:31:46.862Z,33.60
2022-09-23T15:34:14.900Z,20.20
2022-09-23T15:36:45.141Z,14.90
2022-09-23T15:39:13.594Z,7.50
2022-09-23T15:41:43.250Z,9.00
2022-09-23T15:44:28.646Z,8.40
2022-09-23T15:47:00.456Z,6.40
2022-09-23T15:49:37.215Z,5.50
2022-09-23T15:52:06.201Z,4.40
2022-09-23T15:54:34.543Z,5.50
2022-09-23T15:57:02.432Z,8.10
2022-09-23T15:59:31.821Z,9.20
2022-09-23T16:02:04.287Z,4.80
2022-09-23T16:04:36.064Z,6.80
2022-09-23T16:07:05.704Z,12.00
2022-09-23T16:09:35.709Z,38.90
2022-09-23T16:12:03.755Z,25.10
2022-09-23T16:14:31.595Z,18.60
2022-09-23T16:16:59.753Z,14.90
2022-09-23T16:19:27.585Z,7.80
2022-09-23T16:21:55.358Z,7.90
2022-09-23T16:24:27.908Z,5.60
2022-09-23T16:27:00.015Z,4.50
2022-09-23T16:29:28.041Z,3.20
2022-09-23T16:31:55.996Z,6.80
2022-09-23T16:34:24.194Z,15.40
2022-09-23T16:36:52.030Z,19.50
2022-09-23T16:39:20.832Z,15.00
2022-09-23T16:41:48.761Z,13.40
2022-09-23T16:44:16.580Z,13.00
2022-09-23T16:46:44.441Z,12.50
2022-09-23T16:49:13.789Z,12.00
2022-09-23T16:51:42.059Z,15.10
2022-09-23T16:54:12.723Z,12.10
2022-09-23T16:56:47.042Z,17.20
2022-09-23T16:59:16.475Z,26.20
2022-09-23T17:02:05.121Z,32.50
2022-09-23T17:04:33.354Z,47.60
2022-09-23T17:07:01.310Z,78.90
2022-09-23T17:09:30.249Z,90.10
2022-09-23T17:12:28.128Z,91.50
2022-09-23T17:14:55.875Z,102.40
2022-09-23T17:17:23.735Z,95.20
2022-09-23T17:19:51.692Z,97.60
2022-09-23T17:22:19.656Z,95.50
2022-09-23T17:24:47.545Z,93.70
2022-09-23T17:27:17.220Z,103.00
2022-09-23T17:29:45.319Z,93.10
2022-09-23T17:32:13.285Z,95.30
2022-09-23T17:34:44.034Z,80.10
2022-09-23T17:37:12.093Z,76.30
2022-09-23T17:39:40.055Z,81.30
2022-09-23T17:42:08.238Z,82.90
2022-09-23T17:44:36.571Z,110.00
2022-09-23T17:47:06.349Z,103.40
2022-09-23T17:49:35.500Z,159.50
2022-09-23T17:52:07.515Z,146.40
2022-09-23T17:54:36.634Z,162.60
2022-09-23T17:57:04.838Z,212.00
2022-09-23T17:59:32.897Z,186.00
2022-09-23T18:02:00.971Z,158.50
2022-09-23T18:04:31.854Z,132.60
2022-09-23T18:06:59.847Z,128.20
2022-09-23T18:09:27.981Z,199.00
2022-09-23T18:11:56.504Z,202.40
2022-09-23T18:14:24.504Z,201.20
2022-09-23T18:16:53.828Z,243.30
2022-09-23T18:19:24.965Z,244.90
2022-09-23T18:21:56.539Z,222.70
2022-09-23T18:24:32.201Z,218.50
2022-09-23T18:27:01.567Z,197.20
2022-09-23T18:29:29.827Z,202.90
2022-09-23T18:31:59.415Z,188.20
2022-09-23T18:34:28.802Z,200.40
2022-09-23T18:36:57.325Z,204.00
2022-09-23T18:39:25.349Z,201.10
2022-09-23T18:41:53.320Z,203.80
2022-09-23T18:44:21.336Z,244.70
2022-09-23T18:46:49.289Z,277.00
2022-09-23T18:49:35.859Z,298.60
2022-09-23T18:52:03.868Z,310.20
2022-09-23T18:54:32.030Z,288.90
2022-09-23T18:57:00.269Z,273.20
2022-09-23T18:59:33.770Z,262.10
2022-09-23T19:02:02.164Z,246.30
2022-09-23T19:04:30.453Z,241.20
2022-09-23T19:06:59.488Z,249.70
2022-09-23T19:09:27.729Z,272.70
2022-09-23T19:11:56.713Z,265.70
2022-09-23T19:14:24.881Z,254.00
2022-09-23T19:16:53.002Z,286.80
2022-09-23T19:19:21.142Z,277.90
2022-09-23T19:21:49.213Z,232.90
2022-09-23T19:24:20.162Z,230.70
2022-09-23T19:26:48.842Z,225.30
2022-09-23T19:29:22.094Z,227.20
2022-09-23T19:31:51.012Z,199.70
2022-09-23T19:34:26.172Z,207.20
2022-09-23T19:36:57.453Z,194.90
2022-09-23T19:39:28.555Z,197.60
2022-09-23T19:41:56.471Z,181.50
2022-09-23T19:44:29.852Z,181.80
2022-09-23T19:46:58.017Z,176.10
2022-09-23T19:49:26.426Z,183.40
2022-09-23T19:51:56.290Z,168.90
2022-09-23T19:54:27.529Z,181.30
2022-09-23T19:56:58.725Z,199.00
2022-09-23T19:59:28.454Z,184.90
2022-09-23T20:01:56.857Z,161.90
2022-09-23T20:04:25.347Z,181.20
2022-09-23T20:06:53.362Z,198.30
2022-09-23T20:09:21.557Z,176.30
2022-09-23T20:11:49.870Z,158.00
2022-09-23T20:14:20.100Z,144.80
2022-09-23T20:16:48.486Z,151.30
2022-09-23T20:19:16.784Z,139.80
2022-09-23T20:21:48.157Z,143.20
2022-09-23T20:24:16.200Z,153.00
2022-09-23T20:27:17.037Z,151.50
2022-09-23T20:29:45.612Z,155.80
2022-09-23T20:32:13.427Z,120.40
2022-09-23T20:34:47.038Z,124.90
2022-09-23T20:37:20.455Z,102.50
2022-09-23T20:39:48.866Z,100.10
2022-09-23T20:42:19.430Z,86.00
2022-09-23T20:44:50.173Z,84.10
2022-09-23T20:47:18.995Z,84.60
2022-09-23T20:49:49.990Z,87.10
2022-09-23T20:52:21.865Z,88.90
2022-09-23T20:54:51.660Z,82.30
2022-09-23T20:57:23.743Z,89.20
2022-09-23T20:59:51.864Z,130.00
2022-09-23T21:02:20.433Z,106.80
2022-09-23T21:04:50.975Z,109.50
2022-09-23T21:07:24.263Z,97.30
2022-09-23T21:09:52.725Z,96.10
2022-09-23T21:12:23.250Z,149.40
2022-09-23T21:14:52.817Z,85.10
2022-09-23T21:17:20.829Z,75.80
2022-09-23T21:19:48.815Z,78.20
2022-09-23T21:22:18.134Z,73.70
2022-09-23T21:27:38.397Z,212.80
2022-09-23T21:30:07.775Z,226.80
2022-09-23T21:32:38.994Z,146.20
2022-09-23T21:35:08.322Z,117.00
2022-09-23T21:37:36.606Z,90.60
2022-09-23T21:40:23.784Z,77.40
2022-09-23T21:42:52.760Z,84.00
2022-09-23T21:45:20.989Z,90.70
2022-09-23T21:47:49.172Z,94.50
2022-09-23T21:50:19.421Z,91.10
2022-09-23T21:52:50.449Z,100.80
2022-09-23T21:55:19.197Z,107.70
2022-09-23T21:57:47.785Z,92.40
2022-09-23T22:00:16.165Z,80.50
2022-09-23T22:02:44.199Z,85.00
2022-09-23T22:05:11.949Z,85.70
2022-09-23T22:07:39.757Z,87.90
2022-09-23T22:10:08.080Z,107.60
2022-09-23T22:12:36.098Z,110.70
2022-09-23T22:15:09.536Z,110.60
2022-09-23T22:17:44.768Z,113.80
2022-09-23T22:20:13.766Z,111.90
2022-09-23T22:22:43.078Z,122.60
2022-09-23T22:25:12.653Z,124.00
2022-09-23T22:28:00.607Z,128.00
2022-09-23T22:30:47.631Z,127.00
2022-09-23T22:33:16.460Z,119.50
2022-09-23T22:35:46.649Z,119.80
2022-09-23T22:38:14.556Z,104.80
2022-09-23T22:40:43.607Z,98.80
2022-09-23T22:43:12.146Z,90.20
2022-09-23T22:45:40.025Z,82.10
2022-09-23T22:48:08.288Z,83.80
2022-09-23T22:50:39.789Z,78.20
2022-09-23T22:53:07.609Z,75.80
2022-09-23T22:55:35.726Z,74.40
2022-09-23T22:58:27.572Z,68.80
2022-09-23T23:00:57.308Z,67.70
2022-09-23T23:03:27.098Z,68.70
2022-09-23T23:05:57.095Z,66.90
2022-09-23T23:08:24.969Z,59.50
2022-09-23T23:10:52.735Z,55.60
2022-09-23T23:13:31.484Z,53.00
2022-09-23T23:16:04.873Z,56.00
2022-09-23T23:18:40.969Z,58.70
2022-09-23T23:21:16.057Z,58.10
2022-09-23T23:23:50.637Z,55.70
2022-09-23T23:26:28.283Z,59.10
2022-09-23T23:28:57.102Z,57.10
2022-09-23T23:31:27.873Z,56.20
2022-09-23T23:33:58.979Z,65.60
2022-09-23T23:36:26.956Z,48.90
2022-09-23T23:38:54.883Z,48.60
2022-09-23T23:41:23.364Z,55.10
2022-09-23T23:43:58.322Z,54.40
2022-09-23T23:46:29.392Z,50.80
2022-09-23T23:48:57.959Z,52.10
2022-09-23T23:51:26.743Z,51.30
2022-09-23T23:53:55.485Z,48.10
2022-09-23T23:56:26.269Z,47.40
2022-09-23T23:59:00.516Z,40.90
